Time;durP1;ratioP1;P1;durP2;ratioP2;P2;SDS_P1;SDS_P2;PMS_P1;PMS_P2;Temp;Humidity;BMP_temperature;BMP_pressure;BME280_temperature;BME280_humidity;BME280_pressure;Samples;Min_cycle;Max_cycle;Signal;HPM_P1;HPM_P2
2023/12/11 00:01:44;;;;;;;;;;;154.00;2252.80;;;;;;5071003;28;19927;-76
2023/12/11 00:04:11;;;;;;;;;;;153.90;2252.80;;;;;;5075408;28;20030;-74
2023/12/11 00:06:37;;;;;;;;;;;153.90;2252.80;;;;;;5070756;28;19919;-74
2023/12/11 00:09:02;;;;;;;;;;;153.90;2252.80;;;;;;5070604;28;20284;-73
2023/12/11 00:11:28;;;;;;;;;;;154.00;2252.80;;;;;;5056710;28;19921;-74
2023/12/11 00:13:54;;;;;;;;;;;154.00;2252.80;;;;;;5063065;28;19959;-73
2023/12/11 00:16:19;;;;;;;;;;;154.00;2252.80;;;;;;5078374;28;19951;-74
2023/12/11 00:18:45;;;;;;;;;;;154.10;2252.80;;;;;;5077189;28;19920;-73
2023/12/11 00:21:11;;;;;;;;;;;154.00;2252.80;;;;;;5055902;28;19921;-72
2023/12/11 00:23:36;;;;;;;;;;;154.10;2252.80;;;;;;5072433;28;19916;-73
2023/12/11 00:26:02;;;;;;;;;;;154.10;2252.80;;;;;;5072557;28;19913;-72
2023/12/11 00:28:28;;;;;;;;;;;154.10;2252.80;;;;;;5067660;28;20283;-73
2023/12/11 00:30:53;;;;;;;;;;;154.20;2252.80;;;;;;5065156;28;19920;-73
2023/12/11 00:33:19;;;;;;;;;;;154.20;2252.80;;;;;;5072622;28;19912;-74
2023/12/11 00:35:46;;;;;;;;;;;154.20;2252.80;;;;;;5075491;28;19916;-73
2023/12/11 00:38:11;;;;;;;;;;;153.90;2252.80;;;;;;5071819;28;20272;-74
2023/12/11 00:40:37;;;;;;;;;;;154.00;2252.80;;;;;;5074305;28;19912;-75
2023/12/11 00:43:03;;;;;;;;;;;153.80;2252.80;;;;;;5075713;28;19916;-74
2023/12/11 00:45:28;;;;;;;;;;;153.70;2252.80;;;;;;5064428;28;19923;-73
2023/12/11 00:47:54;;;;;;;;;;;153.70;2252.80;;;;;;5040826;28;19913;-72
2023/12/11 00:50:20;;;;;;;;;;;153.70;2252.80;;;;;;5084758;28;20368;-73
2023/12/11 00:52:45;;;;;;;;;;;153.70;2252.80;;;;;;5068074;28;19954;-73
2023/12/11 00:55:11;;;;;;;;;;;153.80;2252.80;;;;;;5074860;28;19917;-72
2023/12/11 00:57:36;;;;;;;;;;;153.70;2252.80;;;;;;5074558;28;19951;-73
2023/12/11 01:00:02;;;;;;;;;;;153.70;2252.80;;;;;;5087484;28;19920;-73
2023/12/11 01:02:28;;;;;;;;;;;153.80;2252.80;;;;;;5073950;28;19920;-74
2023/12/11 01:04:54;;;;;;;;;;;153.60;2252.80;;;;;;5074530;28;19909;-73
2023/12/11 01:07:20;;;;;;;;;;;153.60;2252.80;;;;;;5064713;28;19908;-76
2023/12/11 01:09:45;;;;;;;;;;;153.60;2022.40;;;;;;5082063;28;19908;-73
2023/12/11 01:12:11;;;;;;;;;;;153.60;2252.80;;;;;;5095837;28;20299;-74
2023/12/11 01:14:37;;;;;;;;;;;153.70;2150.40;;;;;;5094522;28;19908;-73
2023/12/11 01:17:03;;;;;;;;;;;153.80;1945.60;;;;;;5093714;28;20001;-75
2023/12/11 01:19:29;;;;;;;;;;;153.70;2252.80;;;;;;5094418;28;20375;-73
2023/12/11 01:21:54;;;;;;;;;;;128.80;2252.80;;;;;;5094073;28;19969;-75
2023/12/11 01:24:20;;;;;;;;;;;128.60;2252.80;;;;;;5094438;28;19912;-76
2023/12/11 01:26:45;;;;;;;;;;;128.40;2252.80;;;;;;5093792;28;20283;-76
2023/12/11 01:29:11;;;;;;;;;;;128.30;2252.80;;;;;;5094253;28;19915;-74
2023/12/11 01:31:37;;;;;;;;;;;128.20;2252.80;;;;;;5080325;28;19913;-74
2023/12/11 01:34:02;;;;;;;;;;;128.20;2252.80;;;;;;5093851;28;20002;-74
2023/12/11 01:36:28;;;;;;;;;;;128.20;2252.80;;;;;;5093788;28;19908;-74
2023/12/11 01:38:53;;;;;;;;;;;128.10;2252.80;;;;;;5094146;28;19908;-73
2023/12/11 01:41:19;;;;;;;;;;;128.00;2252.80;;;;;;5093650;28;20019;-75
2023/12/11 01:43:51;;;;;;;;;;;128.00;2252.80;;;;;;5093725;28;19965;-74
2023/12/11 01:46:18;;;;;;;;;;;128.00;2252.80;;;;;;5093639;28;19915;-75
2023/12/11 01:48:45;;;;;;;;;;;128.20;2252.80;;;;;;5093455;28;19915;-74
2023/12/11 01:51:11;;;;;;;;;;;128.20;2252.80;;;;;;5093484;28;19961;-73
2023/12/11 01:53:38;;;;;;;;;;;128.00;2252.80;;;;;;5094007;28;20313;-73
2023/12/11 01:56:04;;;;;;;;;;;128.00;2252.80;;;;;;5093145;28;19916;-73
2023/12/11 01:58:29;;;;;;;;;;;103.30;2227.20;;;;;;5093300;28;20296;-73
2023/12/11 02:00:55;;;;;;;;;;;103.30;2227.20;;;;;;5093587;28;19974;-74
2023/12/11 02:03:22;;;;;;;;;;;103.20;2227.20;;;;;;5093322;28;19916;-74
2023/12/11 02:05:49;;;;;;;;;;;103.20;2227.20;;;;;;5093264;28;19915;-74
2023/12/11 02:08:15;;;;;;;;;;;103.10;2227.20;;;;;;5093004;28;20355;-75
2023/12/11 02:10:41;;;;;;;;;;;103.10;1971.20;;;;;;5093314;28;19908;-75
2023/12/11 02:13:07;;;;;;;;;;;103.00;2150.40;;;;;;5092955;28;20003;-75
2023/12/11 02:15:39;;;;;;;;;;;103.10;2227.20;;;;;;5093814;28;19934;-74
2023/12/11 02:18:04;;;;;;;;;;;103.10;2227.20;;;;;;5092875;28;19966;-74
2023/12/11 02:20:30;;;;;;;;;;;103.10;2227.20;;;;;;5093600;28;19951;-74
2023/12/11 02:22:57;;;;;;;;;;;103.10;2227.20;;;;;;5092815;28;19961;-74
2023/12/11 02:25:24;;;;;;;;;;;103.20;2227.20;;;;;;5075093;28;19908;-73
2023/12/11 02:27:49;;;;;;;;;;;103.10;2227.20;;;;;;5079890;28;19942;-74
2023/12/11 02:30:15;;;;;;;;;;;103.10;2227.20;;;;;;5093346;28;19912;-76
2023/12/11 02:32:41;;;;;;;;;;;103.00;2227.20;;;;;;5093773;28;19915;-73
2023/12/11 02:35:06;;;;;;;;;;;102.90;2227.20;;;;;;5093410;28;20368;-73
2023/12/11 02:37:32;;;;;;;;;;;102.90;2227.20;;;;;;5093338;28;19908;-73
2023/12/11 02:39:57;;;;;;;;;;;103.00;2227.20;;;;;;5097081;28;19912;-73
2023/12/11 02:42:23;;;;;;;;;;;103.00;2227.20;;;;;;5096770;28;20036;-76
2023/12/11 02:44:49;;;;;;;;;;;103.10;2227.20;;;;;;5097277;28;19914;-74
2023/12/11 02:47:14;;;;;;;;;;;103.00;2227.20;;;;;;5097250;28;19919;-77
2023/12/11 02:49:40;;;;;;;;;;;103.00;2227.20;;;;;;5097226;28;19920;-74
2023/12/11 02:52:05;;;;;;;;;;;102.90;2227.20;;;;;;5097003;28;19947;-74
2023/12/11 02:54:31;;;;;;;;;;;103.00;2227.20;;;;;;5097341;28;20259;-74
2023/12/11 02:56:57;;;;;;;;;;;102.90;2227.20;;;;;;5097171;28;19908;-74
2023/12/11 02:59:22;;;;;;;;;;;102.70;2227.20;;;;;;5112466;28;19908;-73
2023/12/11 03:01:48;;;;;;;;;;;102.80;2227.20;;;;;;5098842;28;19920;-74
2023/12/11 03:04:13;;;;;;;;;;;102.80;2227.20;;;;;;5097016;28;19908;-74
2023/12/11 03:06:39;;;;;;;;;;;102.60;2099.20;;;;;;5096395;28;19934;-75
2023/12/11 03:09:05;;;;;;;;;;;102.40;2227.20;;;;;;5097031;28;20434;-73
2023/12/11 03:11:31;;;;;;;;;;;102.40;2227.20;;;;;;5096857;28;19980;-75
2023/12/11 03:13:56;;;;;;;;;;;102.50;2227.20;;;;;;5096843;28;19956;-75
2023/12/11 03:16:22;;;;;;;;;;;102.40;2227.20;;;;;;5096622;28;19909;-75
2023/12/11 03:18:47;;;;;;;;;;;102.40;2227.20;;;;;;5096464;28;19928;-74
2023/12/11 03:21:13;;;;;;;;;;;77.70;2227.20;;;;;;5096090;28;19920;-74
2023/12/11 03:23:39;;;;;;;;;;;77.60;2227.20;;;;;;5096697;28;20287;-73
2023/12/11 03:26:05;;;;;;;;;;;77.60;2227.20;;;;;;5095896;28;19915;-72
2023/12/11 03:28:31;;;;;;;;;;;77.60;2227.20;;;;;;5096269;28;19908;-73
2023/12/11 03:30:56;;;;;;;;;;;77.70;2227.20;;;;;;5095889;28;19914;-75
2023/12/11 03:33:22;;;;;;;;;;;77.70;2227.20;;;;;;5096058;28;19908;-74
2023/12/11 03:35:47;;;;;;;;;;;102.40;2227.20;;;;;;5095811;28;19908;-74
2023/12/11 03:38:13;;;;;;;;;;;102.40;2227.20;;;;;;5096157;28;19915;-75
2023/12/11 03:40:39;;;;;;;;;;;102.40;2227.20;;;;;;5111988;28;19931;-73
2023/12/11 03:43:04;;;;;;;;;;;77.70;2227.20;;;;;;5096128;28;19916;-74
2023/12/11 03:45:30;;;;;;;;;;;102.40;2227.20;;;;;;5095885;28;20400;-73
2023/12/11 03:47:55;;;;;;;;;;;102.50;2227.20;;;;;;5095892;28;19964;-76
2023/12/11 03:50:21;;;;;;;;;;;102.50;2227.20;;;;;;5095465;28;20276;-74
2023/12/11 03:52:47;;;;;;;;;;;102.50;2227.20;;;;;;5095660;28;20347;-72
2023/12/11 03:55:12;;;;;;;;;;;102.50;2227.20;;;;;;5095411;28;19916;-72
2023/12/11 03:57:38;;;;;;;;;;;102.40;2227.20;;;;;;5096138;28;20390;-73
2023/12/11 04:00:04;;;;;;;;;;;77.70;2227.20;;;;;;5095191;28;20322;-76
2023/12/11 04:02:30;;;;;;;;;;;77.70;2227.20;;;;;;5095596;28;20006;-77
2023/12/11 04:04:56;;;;;;;;;;;102.40;2227.20;;;;;;5095360;28;20000;-74
2023/12/11 04:07:21;;;;;;;;;;;102.40;2227.20;;;;;;5095520;28;20002;-74
2023/12/11 04:09:47;;;;;;;;;;;102.50;2227.20;;;;;;5111157;28;19915;-73
2023/12/11 04:12:13;;;;;;;;;;;102.50;2227.20;;;;;;5095669;28;20287;-74
2023/12/11 04:14:38;;;;;;;;;;;102.50;2227.20;;;;;;5081440;28;20372;-73
2023/12/11 04:17:04;;;;;;;;;;;102.40;2227.20;;;;;;5095287;28;19920;-75
2023/12/11 04:19:29;;;;;;;;;;;102.40;2227.20;;;;;;5094925;28;19969;-73
2023/12/11 04:21:55;;;;;;;;;;;102.40;2227.20;;;;;;5095421;28;20252;-75
2023/12/11 04:24:20;;;;;;;;;;;102.40;2227.20;;;;;;5094548;28;19915;-73
2023/12/11 04:26:46;;;;;;;;;;;102.40;2227.20;;;;;;5095527;28;20003;-74
2023/12/11 04:29:12;;;;;;;;;;;102.40;2227.20;;;;;;5094629;28;19908;-74
2023/12/11 04:31:38;;;;;;;;;;;102.40;2227.20;;;;;;5095184;28;19912;-75
2023/12/11 04:34:04;;;;;;;;;;;77.70;2227.20;;;;;;5094689;28;19908;-73
2023/12/11 04:36:30;;;;;;;;;;;77.70;2227.20;;;;;;5095050;28;19908;-76
2023/12/11 04:38:55;;;;;;;;;;;102.40;2227.20;;;;;;5094968;28;19999;-74
2023/12/11 04:41:21;;;;;;;;;;;102.40;2227.20;;;;;;5067945;28;19915;-75
2023/12/11 04:43:47;;;;;;;;;;;77.70;2227.20;;;;;;5094561;28;20006;-73
2023/12/11 04:46:12;;;;;;;;;;;77.70;2227.20;;;;;;5094540;28;19908;-74
2023/12/11 04:48:38;;;;;;;;;;;77.70;2227.20;;;;;;5094920;28;19916;-77
2023/12/11 04:51:04;;;;;;;;;;;77.70;2227.20;;;;;;5094483;28;20004;-74
2023/12/11 04:53:29;;;;;;;;;;;102.40;2227.20;;;;;;5094670;28;20351;-74
2023/12/11 04:55:55;;;;;;;;;;;102.40;2227.20;;;;;;5094181;28;19928;-74
2023/12/11 04:58:21;;;;;;;;;;;102.40;2227.20;;;;;;5094258;28;20355;-75
2023/12/11 05:00:47;;;;;;;;;;;102.40;2227.20;;;;;;5093827;28;19908;-75
2023/12/11 05:03:12;;;;;;;;;;;102.40;2227.20;;;;;;5093805;28;20317;-73
2023/12/11 05:05:38;;;;;;;;;;;102.40;2227.20;;;;;;5094855;28;19912;-77
2023/12/11 05:08:03;;;;;;;;;;;102.40;2227.20;;;;;;5093849;28;19950;-74
2023/12/11 05:10:29;;;;;;;;;;;102.40;2227.20;;;;;;5094177;28;19999;-75
2023/12/11 05:12:55;;;;;;;;;;;102.40;2227.20;;;;;;5094373;28;19908;-74
2023/12/11 05:15:20;;;;;;;;;;;102.50;2227.20;;;;;;5094230;28;20077;-73
2023/12/11 05:17:46;;;;;;;;;;;102.40;2227.20;;;;;;5093713;28;19927;-73
2023/12/11 05:20:12;;;;;;;;;;;102.50;2227.20;;;;;;5094431;28;19919;-72
2023/12/11 05:22:38;;;;;;;;;;;102.50;2227.20;;;;;;5093791;28;20372;-73
2023/12/11 05:25:04;;;;;;;;;;;102.50;2227.20;;;;;;5094435;28;19917;-75
2023/12/11 05:27:30;;;;;;;;;;;102.50;2227.20;;;;;;5088350;28;19916;-72
2023/12/11 05:29:55;;;;;;;;;;;102.50;2227.20;;;;;;5065470;28;19912;-73
2023/12/11 05:32:21;;;;;;;;;;;102.50;2227.20;;;;;;5067986;28;19999;-76
2023/12/11 05:34:47;;;;;;;;;;;102.50;2227.20;;;;;;5067776;28;19916;-76
2023/12/11 05:37:12;;;;;;;;;;;102.50;2227.20;;;;;;5092532;28;19908;-73
2023/12/11 05:39:38;;;;;;;;;;;102.60;2227.20;;;;;;5073174;28;19920;-76
2023/12/11 05:42:03;;;;;;;;;;;102.70;2227.20;;;;;;5065319;28;19971;-73
2023/12/11 05:44:29;;;;;;;;;;;102.70;2227.20;;;;;;5071466;28;19919;-73
2023/12/11 05:46:55;;;;;;;;;;;102.70;2227.20;;;;;;5085763;28;19912;-75
2023/12/11 05:49:20;;;;;;;;;;;102.70;2227.20;;;;;;5073728;28;19920;-72
2023/12/11 05:51:46;;;;;;;;;;;102.80;2227.20;;;;;;5074619;28;19913;-73
2023/12/11 05:54:11;;;;;;;;;;;102.90;2227.20;;;;;;5069786;28;19909;-72
2023/12/11 05:56:37;;;;;;;;;;;102.90;2227.20;;;;;;5080671;28;19912;-73
2023/12/11 05:59:03;;;;;;;;;;;103.00;2227.20;;;;;;5076819;28;19915;-75
2023/12/11 06:01:29;;;;;;;;;;;102.90;2227.20;;;;;;5071897;28;19973;-73
2023/12/11 06:03:55;;;;;;;;;;;102.70;2227.20;;;;;;5061019;28;19909;-75
2023/12/11 06:06:20;;;;;;;;;;;102.70;2227.20;;;;;;5071615;28;19909;-73
2023/12/11 06:08:46;;;;;;;;;;;102.70;2227.20;;;;;;5061057;28;19962;-74
2023/12/11 06:11:11;;;;;;;;;;;102.70;2227.20;;;;;;5076609;28;19915;-75
2023/12/11 06:13:37;;;;;;;;;;;102.80;2227.20;;;;;;5073013;28;20328;-75
2023/12/11 06:16:03;;;;;;;;;;;102.80;2227.20;;;;;;5076296;28;20372;-74
2023/12/11 06:18:28;;;;;;;;;;;102.80;2227.20;;;;;;5078667;28;19928;-74
2023/12/11 06:20:54;;;;;;;;;;;102.90;2227.20;;;;;;5077350;28;20393;-75
2023/12/11 06:23:22;;;;;;;;;;;102.90;2227.20;;;;;;5076466;28;19924;-75
2023/12/11 06:25:48;;;;;;;;;;;102.90;2227.20;;;;;;5063838;28;19908;-74
2023/12/11 06:28:13;;;;;;;;;;;102.90;2227.20;;;;;;5063991;28;20314;-74
2023/12/11 06:30:39;;;;;;;;;;;103.00;2227.20;;;;;;5087982;28;19908;-75
2023/12/11 06:33:05;;;;;;;;;;;103.00;2227.20;;;;;;5079322;28;19909;-74
2023/12/11 06:35:30;;;;;;;;;;;103.00;2227.20;;;;;;5073989;28;20300;-73
2023/12/11 06:37:56;;;;;;;;;;;102.90;2227.20;;;;;;5081233;28;20007;-73
2023/12/11 06:40:21;;;;;;;;;;;102.80;2227.20;;;;;;5076458;28;20362;-73
2023/12/11 06:42:47;;;;;;;;;;;102.80;2227.20;;;;;;5078381;28;19970;-75
2023/12/11 06:45:13;;;;;;;;;;;102.90;2227.20;;;;;;5075965;28;19909;-75
2023/12/11 06:47:38;;;;;;;;;;;102.90;2227.20;;;;;;5086717;28;20349;-74
2023/12/11 06:50:04;;;;;;;;;;;103.00;2227.20;;;;;;5073070;28;20012;-73
2023/12/11 06:52:30;;;;;;;;;;;103.10;2227.20;;;;;;5060429;28;19948;-74
2023/12/11 06:54:55;;;;;;;;;;;103.10;2227.20;;;;;;5080034;28;20367;-72
2023/12/11 06:57:21;;;;;;;;;;;103.10;2227.20;;;;;;5066114;28;19974;-74
2023/12/11 06:59:47;;;;;;;;;;;103.10;2227.20;;;;;;5064676;28;19958;-77
2023/12/11 07:02:13;;;;;;;;;;;103.20;2227.20;;;;;;5065977;28;19973;-76
2023/12/11 07:04:42;;;;;;;;;;;103.20;2227.20;;;;;;5057119;28;19948;-77
2023/12/11 07:07:07;;;;;;;;;;;103.30;2227.20;;;;;;5062323;28;19912;-75
2023/12/11 07:09:33;;;;;;;;;;;103.30;2227.20;;;;;;5075846;28;20418;-76
2023/12/11 07:11:59;;;;;;;;;;;103.30;2227.20;;;;;;5077546;28;19916;-77
2023/12/11 07:14:24;;;;;;;;;;;103.30;2227.20;;;;;;5071872;28;19919;-75
2023/12/11 07:16:50;;;;;;;;;;;103.20;2227.20;;;;;;5077917;28;19920;-76
2023/12/11 07:19:16;;;;;;;;;;;103.20;2227.20;;;;;;5073960;28;19920;-75
2023/12/11 07:21:45;;;;;;;;;;;103.20;2227.20;;;;;;5082676;28;19927;-77
2023/12/11 07:24:11;;;;;;;;;;;103.10;2227.20;;;;;;5071359;28;19908;-75
2023/12/11 07:26:37;;;;;;;;;;;103.10;2227.20;;;;;;5079518;28;20246;-77
2023/12/11 07:29:04;;;;;;;;;;;103.20;2227.20;;;;;;5090895;28;19991;-78
2023/12/11 07:31:29;;;;;;;;;;;103.30;2227.20;;;;;;5083455;28;19947;-76
2023/12/11 07:33:55;;;;;;;;;;;103.20;2227.20;;;;;;5076830;28;19909;-75
2023/12/11 07:36:22;;;;;;;;;;;103.30;2227.20;;;;;;5080359;28;19966;-75
2023/12/11 07:38:47;;;;;;;;;;;128.00;2252.80;;;;;;5079026;28;19963;-75
2023/12/11 07:41:18;;;;;;;;;;;128.00;2252.80;;;;;;5065642;28;19937;-76
2023/12/11 07:43:43;;;;;;;;;;;103.30;2227.20;;;;;;5079823;28;19938;-76
2023/12/11 07:46:15;;;;;;;;;;;103.30;2227.20;;;;;;5083453;28;20344;-76
2023/12/11 07:48:40;;;;;;;;;;;128.00;2252.80;;;;;;5052053;28;19916;-76
2023/12/11 07:51:06;;;;;;;;;;;128.10;2252.80;;;;;;5052545;28;19931;-76
2023/12/11 07:53:33;;;;;;;;;;;128.10;2252.80;;;;;;5061640;28;19999;-76
2023/12/11 07:55:59;;;;;;;;;;;128.20;2252.80;;;;;;5088782;28;19944;-75
2023/12/11 07:58:24;;;;;;;;;;;128.30;2252.80;;;;;;5089212;28;19959;-76
2023/12/11 08:00:50;;;;;;;;;;;128.30;2252.80;;;;;;5081979;28;19912;-75
2023/12/11 08:03:15;;;;;;;;;;;128.30;2252.80;;;;;;5079884;28;19917;-76
2023/12/11 08:05:41;;;;;;;;;;;128.40;2252.80;;;;;;5095839;28;19908;-75
2023/12/11 08:08:06;;;;;;;;;;;128.40;2252.80;;;;;;5084474;28;19908;-76
2023/12/11 08:10:32;;;;;;;;;;;128.50;2252.80;;;;;;5095667;28;19908;-75
2023/12/11 08:12:58;;;;;;;;;;;128.50;2252.80;;;;;;5073942;28;19955;-76
2023/12/11 08:15:24;;;;;;;;;;;128.50;2252.80;;;;;;5077671;28;19916;-75
2023/12/11 08:17:49;;;;;;;;;;;128.50;2252.80;;;;;;5070589;28;19927;-76
2023/12/11 08:20:16;;;;;;;;;;;128.60;2252.80;;;;;;5058139;28;20481;-76
2023/12/11 08:22:42;;;;;;;;;;;128.60;2252.80;;;;;;5094927;28;20392;-76
2023/12/11 08:25:10;;;;;;;;;;;128.60;2252.80;;;;;;5045174;28;20313;-76
2023/12/11 08:27:35;;;;;;;;;;;128.60;2252.80;;;;;;5077654;28;19992;-76
2023/12/11 08:30:01;;;;;;;;;;;128.70;2252.80;;;;;;5074260;28;19999;-75
2023/12/11 08:32:26;;;;;;;;;;;128.70;2252.80;;;;;;5068473;28;19909;-76
2023/12/11 08:34:52;;;;;;;;;;;128.70;2252.80;;;;;;5068282;28;19940;-75
2023/12/11 08:37:18;;;;;;;;;;;128.80;2252.80;;;;;;5080207;28;19915;-76
2023/12/11 08:39:43;;;;;;;;;;;128.90;2252.80;;;;;;5090428;28;19912;-76
2023/12/11 08:42:09;;;;;;;;;;;153.60;2252.80;;;;;;5078829;28;19921;-77
2023/12/11 08:44:35;;;;;;;;;;;153.70;2252.80;;;;;;5054731;28;19991;-77
2023/12/11 08:47:01;;;;;;;;;;;153.70;2252.80;;;;;;5063611;28;20381;-78
2023/12/11 08:49:26;;;;;;;;;;;153.80;2252.80;;;;;;5057254;28;19912;-76
2023/12/11 08:51:52;;;;;;;;;;;153.90;2252.80;;;;;;5053987;28;20011;-80
2023/12/11 08:54:18;;;;;;;;;;;153.90;2252.80;;;;;;5079398;28;19909;-76
2023/12/11 08:56:43;;;;;;;;;;;154.00;2252.80;;;;;;5069639;28;19967;-78
2023/12/11 08:59:09;;;;;;;;;;;154.10;2252.80;;;;;;5059262;28;19923;-76
2023/12/11 09:01:35;;;;;;;;;;;154.10;2252.80;;;;;;5102423;28;19917;-76
2023/12/11 09:04:01;;;;;;;;;;;154.20;2252.80;;;;;;5080753;28;19974;-76
2023/12/11 09:06:27;;;;;;;;;;;154.10;2252.80;;;;;;5071544;28;19912;-76
2023/12/11 09:08:52;;;;;;;;;;;154.10;2252.80;;;;;;5070017;28;19909;-77
2023/12/11 09:11:18;;;;;;;;;;;154.10;2252.80;;;;;;5057671;28;19912;-76
2023/12/11 09:13:43;;;;;;;;;;;154.20;2252.80;;;;;;5075287;28;20352;-77
2023/12/11 09:16:09;;;;;;;;;;;154.30;2252.80;;;;;;5085995;28;19939;-76
2023/12/11 09:18:35;;;;;;;;;;;154.20;2252.80;;;;;;5075627;28;20022;-76
2023/12/11 09:21:01;;;;;;;;;;;154.40;2252.80;;;;;;5068988;28;19916;-77
2023/12/11 09:23:29;;;;;;;;;;;154.40;2252.80;;;;;;5075025;28;20204;-78
2023/12/11 09:25:54;;;;;;;;;;;154.50;2252.80;;;;;;5073725;28;19917;-75
2023/12/11 09:28:20;;;;;;;;;;;154.50;2252.80;;;;;;5073852;28;19966;-76
2023/12/11 09:30:45;;;;;;;;;;;154.50;2252.80;;;;;;5076061;28;19953;-76
2023/12/11 09:59:10;;;;;;;113.27;52.60;;;;;;;;;;5109586;27;20393;-77
2023/12/11 10:01:37;;;;;;;99.65;44.83;;;;;;;;;;5092564;28;20059;-75
2023/12/11 10:04:04;;;;;;;91.35;44.22;;;205.00;2252.80;;;;;;5083447;28;20778;-75
2023/12/11 10:06:29;;;;;;;84.35;39.75;;;205.10;2252.80;;;;;;5093971;28;20032;-73
2023/12/11 10:08:55;;;;;;;80.28;39.45;;;205.70;2252.80;;;;;;5101090;28;20035;-75
2023/12/11 10:11:22;;;;;;;;;;;230.60;2252.80;;;;;;5089609;28;20027;-73
2023/12/11 10:13:51;;;;;;;56.63;28.85;;;230.50;2252.80;;;;;;5086357;28;19991;-75
2023/12/11 10:16:30;;;;;;;69.68;34.63;;;205.50;2252.80;;;;;;5080640;28;20055;-75
2023/12/11 10:18:56;;;;;;;71.15;34.97;;;205.20;2252.80;;;;;;5080856;28;20036;-75
2023/12/11 10:21:26;;;;;;;68.03;34.67;;;205.00;2252.80;;;;;;5089000;28;20043;-78
2023/12/11 10:24:14;;;;;;;74.65;36.95;;;205.00;2252.80;;;;;;5085931;28;20021;-76
2023/12/11 10:26:46;;;;;;;66.10;33.08;;;204.90;2252.80;;;;;;5092540;28;20044;-76
2023/12/11 10:29:23;;;;;;;89.40;37.63;;;205.00;2252.80;;;;;;5079769;28;20116;-74
2023/12/11 10:31:50;;;;;;;78.50;37.38;;;205.10;2252.80;;;;;;5110506;27;20032;-77
2023/12/11 10:34:16;;;;;;;72.70;35.67;;;205.10;2252.80;;;;;;5093759;28;20028;-75
2023/12/11 10:36:51;;;;;;;65.28;32.58;;;205.20;2252.80;;;;;;5096543;28;20091;-75
2023/12/11 10:39:21;;;;;;;93.43;38.88;;;205.20;2252.80;;;;;;5087809;28;20047;-75
2023/12/11 10:41:47;;;;;;;93.97;37.95;;;205.10;2252.80;;;;;;5075116;28;20067;-76
2023/12/11 10:44:23;;;;;;;;;;;205.10;2252.80;;;;;;5085043;28;20381;-75
2023/12/11 10:46:53;;;;;;;67.40;32.95;;;205.20;2252.80;;;;;;5080489;28;19913;-74
2023/12/11 10:49:19;;;;;;;72.80;32.72;;;205.20;2252.80;;;;;;5078125;28;20519;-75
2023/12/11 10:51:46;;;;;;;70.53;31.52;;;205.20;2252.80;;;;;;5081855;28;20081;-75
2023/12/11 10:54:13;;;;;;;67.65;28.92;;;205.20;2073.60;;;;;;5076981;28;20028;-75
2023/12/11 10:56:45;;;;;;;50.00;24.80;;;205.30;2252.80;;;;;;5083016;28;20102;-74
2023/12/11 10:59:11;;;;;;;59.97;27.80;;;205.40;2252.80;;;;;;5067570;28;20043;-76
2023/12/11 11:01:44;;;;;;;58.47;27.08;;;205.40;2252.80;;;;;;5071192;28;20041;-75
2023/12/11 11:04:12;;;;;;;51.45;24.58;;;205.30;2252.80;;;;;;5065376;28;20028;-75
2023/12/11 11:06:46;;;;;;;58.50;26.58;;;205.20;2252.80;;;;;;5067168;28;20115;-75
2023/12/11 11:09:18;;;;;;;47.13;23.35;;;205.10;2252.80;;;;;;5075415;28;20485;-76
2023/12/11 11:11:52;;;;;;;44.42;24.52;;;205.00;2252.80;;;;;;5070747;28;20104;-76
2023/12/11 11:14:36;;;;;;;63.28;30.50;;;205.10;2252.80;;;;;;5068162;28;20042;-75
2023/12/11 11:17:02;;;;;;;47.17;26.25;;;205.10;2252.80;;;;;;5105395;27;20037;-75
2023/12/11 11:19:29;;;;;;;54.28;27.90;;;205.10;2252.80;;;;;;5083743;28;20064;-75
2023/12/11 11:22:03;;;;;;;52.90;28.42;;;205.10;2252.80;;;;;;5070898;28;20062;-75
2023/12/11 11:24:30;;;;;;;58.65;29.70;;;205.10;2252.80;;;;;;5076097;28;20028;-76
2023/12/11 11:27:04;;;;;;;55.53;28.23;;;205.20;2252.80;;;;;;5076021;28;20115;-75
2023/12/11 11:29:43;;;;;;;59.63;29.27;;;205.20;2252.80;;;;;;5076301;28;20032;-75
2023/12/11 11:32:11;;;;;;;53.30;27.58;;;205.40;2252.80;;;;;;5070632;28;20057;-75
2023/12/11 11:34:39;;;;;;;59.35;29.13;;;205.70;2252.80;;;;;;5073040;28;20127;-75
2023/12/11 11:37:06;;;;;;;53.05;29.27;;;230.50;2252.80;;;;;;5066460;28;20025;-76
2023/12/11 11:40:00;;;;;;;54.50;28.95;;;230.40;2252.80;;;;;;5079146;28;20067;-75
2023/12/11 11:42:28;;;;;;;48.40;27.23;;;230.40;1996.80;;;;;;5068982;28;20028;-75
2023/12/11 11:45:02;;;;;;;54.53;26.70;;;230.40;2073.60;;;;;;5065016;28;20043;-77
2023/12/11 11:47:29;;;;;;;60.75;34.00;;;230.50;2048.00;;;;;;5079064;28;20482;-76
2023/12/11 11:50:07;;;;;;;57.20;28.95;;;230.60;1920.00;;;;;;5064660;28;20470;-75
2023/12/11 11:52:35;;;;;;;54.50;27.67;;;230.60;2252.80;;;;;;5074792;28;20020;-75
2023/12/11 11:55:15;;;;;;;48.80;26.98;;;230.60;2252.80;;;;;;5067142;28;20028;-75
2023/12/11 11:57:41;;;;;;;59.47;28.35;;;230.70;2252.80;;;;;;5074523;28;20044;-75
2023/12/11 12:00:07;;;;;;;54.10;29.60;;;230.70;2252.80;;;;;;5080172;28;20582;-73
2023/12/11 12:02:33;;;;;;;55.78;28.45;;;230.90;2252.80;;;;;;5081697;28;20052;-74
2023/12/11 12:05:11;;;;;;;54.38;25.55;;;231.00;2252.80;;;;;;5074193;28;20025;-76
2023/12/11 12:07:40;;;;;;;46.88;25.20;;;231.10;2252.80;;;;;;5081146;28;20127;-76
2023/12/11 12:10:10;;;;;;;49.60;28.52;;;231.20;2252.80;;;;;;5071275;28;20025;-75
2023/12/11 12:12:36;;;;;;;52.13;29.52;;;231.30;2252.80;;;;;;5075375;28;20025;-74
2023/12/11 12:15:04;;;;;;;57.03;26.83;;;256.00;2252.80;;;;;;5070493;28;20079;-75
2023/12/11 12:17:30;;;;;;;42.60;23.75;;;231.30;2252.80;;;;;;5081826;28;20055;-74
2023/12/11 12:19:56;;;;;;;46.00;23.60;;;231.30;2252.80;;;;;;5078390;28;20025;-73
2023/12/11 12:22:22;;;;;;;53.58;27.45;;;231.30;2252.80;;;;;;5071614;28;20085;-76
2023/12/11 12:24:51;;;;;;;;;;;256.00;2252.80;;;;;;5064821;28;20032;-76
2023/12/11 12:27:21;;;;;;;47.28;23.73;;;256.00;2252.80;;;;;;5073192;28;19916;-74
2023/12/11 12:29:47;;;;;;;44.20;22.73;;;231.30;2252.80;;;;;;5067928;28;20068;-75
2023/12/11 12:32:15;;;;;;;37.22;19.30;;;256.00;2252.80;;;;;;5080962;28;20028;-75
2023/12/11 12:34:45;;;;;;;36.35;19.42;;;256.20;2252.80;;;;;;5065018;28;20107;-76
2023/12/11 12:37:13;;;;;;;34.45;20.17;;;256.20;2252.80;;;;;;5069162;28;20017;-76
2023/12/11 12:39:39;;;;;;;34.13;19.80;;;256.20;2252.80;;;;;;5065054;28;20057;-76
2023/12/11 12:42:05;;;;;;;42.75;21.17;;;256.20;2252.80;;;;;;5074557;28;20028;-76
2023/12/11 12:44:38;;;;;;;36.58;19.58;;;256.80;2252.80;;;;;;5076013;28;20040;-75
2023/12/11 12:47:04;;;;;;;41.78;22.23;;;256.50;2252.80;;;;;;5070583;28;20486;-77
2023/12/11 12:49:33;;;;;;;41.95;19.42;;;256.50;2252.80;;;;;;5081972;28;20020;-76
2023/12/11 12:51:59;;;;;;;38.28;20.33;;;256.50;2252.80;;;;;;5070181;28;20537;-77
2023/12/11 12:54:25;;;;;;;36.63;20.55;;;256.50;2252.80;;;;;;5076017;28;20028;-75
2023/12/11 12:56:55;;;;;;;;;;;256.50;2252.80;;;;;;5069172;28;20506;-76
2023/12/11 12:59:21;;;;;;;35.90;16.63;;;256.50;2252.80;;;;;;5075034;28;19985;-76
2023/12/11 13:01:48;;;;;;;39.47;18.13;;;256.50;2252.80;;;;;;5075644;28;20039;-77
2023/12/11 13:04:15;;;;;;;34.78;17.15;;;256.50;2252.80;;;;;;5063390;28;20036;-77
2023/12/11 13:06:41;;;;;;;27.90;15.77;;;256.50;2252.80;;;;;;5062672;28;20029;-76
2023/12/11 13:09:13;;;;;;;24.83;14.93;;;256.50;2252.80;;;;;;5069111;28;20054;-76
2023/12/11 13:11:46;;;;;;;31.00;15.48;;;256.50;2252.80;;;;;;5074538;28;20048;-76
2023/12/11 13:14:13;;;;;;;33.53;15.98;;;256.50;2252.80;;;;;;5065928;28;20036;-77
2023/12/11 13:16:43;;;;;;;32.08;15.63;;;256.50;2252.80;;;;;;5066393;28;20107;-77
2023/12/11 13:19:09;;;;;;;33.85;17.08;;;256.50;2252.80;;;;;;5067496;28;20436;-76
2023/12/11 13:21:35;;;;;;;29.75;15.65;;;256.50;2252.80;;;;;;5076342;28;20568;-77
2023/12/11 13:24:01;;;;;;;37.05;17.50;;;256.40;2252.80;;;;;;5056316;28;20115;-76
2023/12/11 13:26:26;;;;;;;39.15;21.52;;;256.50;2252.80;;;;;;5069880;28;20016;-77
2023/12/11 13:28:53;;;;;;;26.10;16.55;;;256.50;2252.80;;;;;;5076659;28;20039;-76
2023/12/11 13:31:19;;;;;;;29.60;13.95;;;256.40;2252.80;;;;;;5092464;28;20624;-76
2023/12/11 13:33:45;;;;;;;36.78;16.05;;;256.30;2252.80;;;;;;5084816;28;20149;-74
2023/12/11 13:36:14;;;;;;;37.35;18.27;;;256.30;2252.80;;;;;;5090324;28;20102;-75